Time;durP1;ratioP1;P1;durP2;ratioP2;P2;SDS_P1;SDS_P2;PMS_P1;PMS_P2;Temp;Humidity;BMP_temperature;BMP_pressure;BME280_temperature;BME280_humidity;BME280_pressure;Samples;Min_cycle;Max_cycle;Signal;HPM_P1;HPM_P2
2021/12/28 00:01:50;;;;;;;3.73;2.67;;;;;;;;;;5016213;28;20053;-65
2021/12/28 00:04:15;;;;;;;3.47;2.53;;;;;;;;;;5008467;28;20083;-65
2021/12/28 00:06:41;;;;;;;4.15;3.40;;;;;;;;;;5025732;28;20105;-65
2021/12/28 00:09:06;;;;;;;5.40;3.27;;;;;;;;;;5022786;28;21101;-65
2021/12/28 00:11:31;;;;;;;6.03;3.27;;;;;;;;;;5028062;28;20037;-65
2021/12/28 00:14:01;;;;;;;4.43;3.60;;;;;;;;;;5026379;28;20018;-65
2021/12/28 00:17:59;;;;;;;5.30;3.43;;;;;;;;;;5026514;28;20040;-65
2021/12/28 00:19:18;;;;;;;5.40;3.90;;;;;;;;;;5023540;28;20398;-65
2021/12/28 00:21:43;;;;;;;4.90;3.50;;;;;;;;;;5027155;28;20026;-65
2021/12/28 00:24:08;;;;;;;6.47;4.00;;;;;;;;;;5029514;28;20036;-65
2021/12/28 00:26:33;;;;;;;5.57;3.77;;;;;;;;;;5025380;28;20087;-65
2021/12/28 00:28:58;;;;;;;6.83;4.37;;;;;;;;;;5025302;28;20044;-65
2021/12/28 00:31:25;;;;;;;5.07;3.70;;;;;;;;;;5027548;28;20478;-65
2021/12/28 00:33:52;;;;;;;6.07;4.00;;;;;;;;;;5026056;28;20021;-65
2021/12/28 00:36:17;;;;;;;5.73;3.93;;;;;;;;;;5033119;28;20039;-65
2021/12/28 00:38:43;;;;;;;6.70;4.30;;;;;;;;;;5014538;28;20021;-65
2021/12/28 00:41:09;;;;;;;5.70;3.80;;;;;;;;;;5028268;28;20045;-65
2021/12/28 00:43:35;;;;;;;5.90;4.40;;;;;;;;;;5029072;28;20075;-65
2021/12/28 00:46:00;;;;;;;5.40;4.10;;;;;;;;;;5032280;28;20025;-65
2021/12/28 00:48:26;;;;;;;5.80;4.33;;;;;;;;;;5031715;28;20040;-65
2021/12/28 00:50:52;;;;;;;6.97;4.53;;;;;;;;;;5031567;28;20037;-65
2021/12/28 00:53:17;;;;;;;5.87;4.40;;;;;;;;;;5031822;28;20098;-65
2021/12/28 00:55:42;;;;;;;6.50;4.53;;;;;;;;;;5030384;28;20478;-65
2021/12/28 00:58:08;;;;;;;6.40;4.47;;;;;;;;;;5032695;28;20023;-65
2021/12/28 01:00:34;;;;;;;5.30;4.07;;;;;;;;;;5032783;28;20029;-65
2021/12/28 01:03:00;;;;;;;6.70;4.83;;;;;;;;;;5031842;28;20032;-65
2021/12/28 01:05:26;;;;;;;7.33;4.60;;;;;;;;;;5027064;28;20030;-65
2021/12/28 01:07:51;;;;;;;7.60;5.03;;;;;;;;;;5027750;28;20112;-65
2021/12/28 01:10:18;;;;;;;7.28;4.60;;;;;;;;;;5023176;28;20040;-65
2021/12/28 01:12:44;;;;;;;6.03;4.53;;;;;;;;;;5036657;28;20025;-65
2021/12/28 01:15:10;;;;;;;6.78;4.95;;;;;;;;;;5038160;28;20044;-65
2021/12/28 01:17:36;;;;;;;6.57;4.60;;;;;;;;;;5031935;28;20029;-65
2021/12/28 01:20:02;;;;;;;7.10;4.82;;;;;;;;;;5029698;28;20502;-65
2021/12/28 01:22:28;;;;;;;6.93;4.88;;;;;;;;;;5032457;28;20043;-65
2021/12/28 01:24:53;;;;;;;7.27;5.00;;;;;;;;;;5013896;28;20025;-65
2021/12/28 01:27:18;;;;;;;6.37;4.20;;;;;;;;;;5014753;28;20033;-65
2021/12/28 01:29:43;;;;;;;6.35;4.15;;;;;;;;;;5031745;28;20067;-65
2021/12/28 01:32:09;;;;;;;5.53;4.05;;;;;;;;;;5032127;28;20030;-65
2021/12/28 01:34:35;;;;;;;7.13;5.05;;;;;;;;;;5030807;28;20496;-65
2021/12/28 01:37:00;;;;;;;6.22;4.35;;;;;;;;;;5013552;28;20029;-65
2021/12/28 01:39:25;;;;;;;5.13;3.58;;;;;;;;;;5028837;28;20020;-65
2021/12/28 01:41:50;;;;;;;6.03;3.70;;;;;;;;;;5031121;28;20586;-65
2021/12/28 01:44:16;;;;;;;4.90;3.57;;;;;;;;;;5032110;28;20536;-65
2021/12/28 01:46:41;;;;;;;5.88;3.67;;;;;;;;;;5027522;28;20029;-65
2021/12/28 01:49:07;;;;;;;4.65;3.25;;;;;;;;;;5031706;28;20024;-65
2021/12/28 01:51:33;;;;;;;4.78;3.17;;;;;;;;;;5012295;28;20021;-65
2021/12/28 01:53:58;;;;;;;3.80;2.85;;;;;;;;;;5031911;28;20035;-65
2021/12/28 01:56:28;;;;;;;4.00;2.78;;;;;;;;;;5029750;28;20022;-65
2021/12/28 01:58:54;;;;;;;4.85;3.08;;;;;;;;;;5032442;28;20079;-65
2021/12/28 02:01:19;;;;;;;4.50;3.22;;;;;;;;;;5031230;28;20490;-65
2021/12/28 02:03:45;;;;;;;3.63;2.85;;;;;;;;;;5030141;28;20529;-65
2021/12/28 02:06:10;;;;;;;6.30;3.97;;;;;;;;;;5030194;28;20030;-65
2021/12/28 02:08:36;;;;;;;5.28;4.20;;;;;;;;;;5029910;28;20572;-65
2021/12/28 02:11:01;;;;;;;7.60;4.47;;;;;;;;;;5027268;28;20525;-65
2021/12/28 02:13:27;;;;;;;7.03;4.75;;;;;;;;;;5012859;28;20478;-65
2021/12/28 02:15:54;;;;;;;7.38;4.88;;;;;;;;;;5029128;28;20090;-65
2021/12/28 02:18:20;;;;;;;8.23;5.72;;;;;;;;;;5024798;28;20470;-65
2021/12/28 02:20:46;;;;;;;8.23;5.70;;;;;;;;;;5015857;28;20025;-65
2021/12/28 02:23:11;;;;;;;8.52;6.32;;;;;;;;;;5030125;28;20110;-65
2021/12/28 02:25:38;;;;;;;8.43;5.82;;;;;;;;;;5026438;28;20101;-65
2021/12/28 02:28:06;;;;;;;9.17;6.07;;;;;;;;;;5035340;28;20057;-65
2021/12/28 02:30:32;;;;;;;8.25;5.93;;;;;;;;;;5027894;28;20262;-65
2021/12/28 02:32:57;;;;;;;8.35;5.50;;;;;;;;;;5030566;28;20036;-65
2021/12/28 02:35:24;;;;;;;9.27;6.53;;;;;;;;;;5029341;28;20037;-65
2021/12/28 02:37:50;;;;;;;9.10;6.32;;;;;;;;;;5030564;28;20021;-65
2021/12/28 02:40:17;;;;;;;9.10;6.50;;;;;;;;;;5006180;28;20053;-65
2021/12/28 02:42:42;;;;;;;10.23;7.00;;;;;;;;;;5023191;28;20029;-65
2021/12/28 02:45:13;;;;;;;10.90;7.63;;;;;;;;;;5026009;28;20036;-65
2021/12/28 02:47:40;;;;;;;9.38;6.43;;;;;;;;;;5030812;28;20029;-65
2021/12/28 02:50:07;;;;;;;11.18;7.55;;;;;;;;;;5029579;28;20034;-65
2021/12/28 02:52:34;;;;;;;9.80;7.47;;;;;;;;;;5030763;28;20030;-65
2021/12/28 02:54:59;;;;;;;11.80;8.20;;;;;;;;;;5013183;28;20036;-65
2021/12/28 02:57:25;;;;;;;11.95;7.65;;;;;;;;;;5032458;28;20461;-65
2021/12/28 02:59:50;;;;;;;12.67;8.20;;;;;;;;;;5034750;28;20017;-65
2021/12/28 03:02:16;;;;;;;12.55;8.38;;;;;;;;;;5034939;28;20037;-65
2021/12/28 03:04:41;;;;;;;10.73;7.80;;;;;;;;;;5034872;28;20022;-65
2021/12/28 03:07:07;;;;;;;12.00;8.27;;;;;;;;;;5033542;28;20486;-65
2021/12/28 03:09:32;;;;;;;10.23;7.50;;;;;;;;;;5027932;28;20071;-65
2021/12/28 03:11:57;;;;;;;12.35;8.05;;;;;;;;;;5027585;28;20021;-65
2021/12/28 03:14:22;;;;;;;12.40;8.63;;;;;;;;;;5033789;28;20025;-65
2021/12/28 03:16:47;;;;;;;12.18;8.27;;;;;;;;;;5030657;28;20049;-65
2021/12/28 03:19:13;;;;;;;14.13;9.33;;;;;;;;;;5012261;28;20029;-65
2021/12/28 03:21:40;;;;;;;13.27;8.40;;;;;;;;;;5029203;28;20021;-65
2021/12/28 03:24:06;;;;;;;13.23;9.13;;;;;;;;;;5029872;28;20117;-65
2021/12/28 03:26:31;;;;;;;12.73;8.93;;;;;;;;;;5034085;28;20525;-65
2021/12/28 03:28:56;;;;;;;13.57;9.07;;;;;;;;;;5034756;28;20040;-65
2021/12/28 03:31:22;;;;;;;12.70;8.50;;;;;;;;;;5032551;28;20029;-65
2021/12/28 03:33:48;;;;;;;13.37;9.23;;;;;;;;;;5032330;28;20029;-65
2021/12/28 03:36:14;;;;;;;12.37;8.73;;;;;;;;;;5033837;28;20022;-65
2021/12/28 03:38:40;;;;;;;12.97;8.63;;;;;;;;;;5033972;28;20049;-65
2021/12/28 03:41:07;;;;;;;12.87;8.70;;;;;;;;;;5023972;28;20085;-65
2021/12/28 03:43:34;;;;;;;12.83;8.63;;;;;;;;;;5035121;28;20413;-65
2021/12/28 03:45:59;;;;;;;13.20;9.13;;;;;;;;;;5016478;28;20026;-65
2021/12/28 03:48:24;;;;;;;12.30;8.60;;;;;;;;;;5033628;28;20087;-65
2021/12/28 03:50:49;;;;;;;10.93;7.90;;;;;;;;;;5042415;28;20053;-66
2021/12/28 03:53:15;;;;;;;12.10;8.67;;;;;;;;;;5016051;28;20037;-65
2021/12/28 03:55:40;;;;;;;12.30;8.67;;;;;;;;;;5034199;28;20461;-65
2021/12/28 03:58:05;;;;;;;10.43;7.77;;;;;;;;;;5033766;28;20064;-65
2021/12/28 04:00:32;;;;;;;11.87;8.40;;;;;;;;;;5034709;28;20167;-65
2021/12/28 04:02:57;;;;;;;13.17;8.07;;;;;;;;;;5032536;28;20067;-65
2021/12/28 04:05:23;;;;;;;11.40;8.40;;;;;;;;;;5031747;28;20116;-65
2021/12/28 04:07:48;;;;;;;12.73;8.87;;;;;;;;;;5014017;28;20041;-64
2021/12/28 04:10:15;;;;;;;13.27;8.63;;;;;;;;;;5025162;28;20049;-64
2021/12/28 04:12:41;;;;;;;12.93;9.23;;;;;;;;;;5032209;28;20113;-64
2021/12/28 04:15:08;;;;;;;11.33;8.27;;;;;;;;;;5029715;28;20112;-64
2021/12/28 04:17:37;;;;;;;12.53;8.10;;;;;;;;;;5025710;28;20029;-64
2021/12/28 04:20:03;;;;;;;12.80;9.30;;;;;;;;;;5032458;28;20048;-65
2021/12/28 04:22:28;;;;;;;11.97;8.13;;;;;;;;;;5015142;28;20033;-64
2021/12/28 04:24:54;;;;;;;12.38;8.20;;;;;;;;;;5030738;28;20040;-64
2021/12/28 04:27:19;;;;;;;11.07;7.83;;;;;;;;;;5033171;28;20026;-64
2021/12/28 04:29:46;;;;;;;10.98;7.55;;;;;;;;;;5033058;28;20428;-64
2021/12/28 04:32:11;;;;;;;10.43;6.93;;;;;;;;;;5029578;28;20496;-64
2021/12/28 04:34:36;;;;;;;10.47;7.63;;;;;;;;;;5032161;28;20068;-64
2021/12/28 04:37:02;;;;;;;10.77;7.10;;;;;;;;;;5029705;28;20025;-64
2021/12/28 04:39:27;;;;;;;10.80;7.10;;;;;;;;;;5029194;28;20029;-64
2021/12/28 04:41:52;;;;;;;10.27;6.83;;;;;;;;;;5022062;28;20045;-64
2021/12/28 04:44:23;;;;;;;9.57;6.73;;;;;;;;;;5034152;28;20033;-65
2021/12/28 04:46:49;;;;;;;9.77;6.70;;;;;;;;;;5012675;28;20036;-64
2021/12/28 04:49:16;;;;;;;9.50;6.65;;;;;;;;;;5032319;28;20312;-64
2021/12/28 04:51:41;;;;;;;9.35;6.63;;;;;;;;;;5015308;28;20375;-64
2021/12/28 04:54:11;;;;;;;8.40;5.93;;;;;;;;;;5032775;28;20024;-64
2021/12/28 04:56:36;;;;;;;8.98;6.22;;;;;;;;;;5032482;28;20022;-64
2021/12/28 04:59:02;;;;;;;9.60;6.97;;;;;;;;;;5034605;28;20068;-64
2021/12/28 05:01:27;;;;;;;9.55;6.75;;;;;;;;;;5011163;28;20197;-64
2021/12/28 05:03:52;;;;;;;8.25;5.60;;;;;;;;;;5021657;28;20496;-64
2021/12/28 05:06:17;;;;;;;7.60;6.00;;;;;;;;;;5030299;28;20555;-64
2021/12/28 05:08:42;;;;;;;9.02;6.45;;;;;;;;;;5032928;28;20482;-64
2021/12/28 05:11:08;;;;;;;8.13;5.88;;;;;;;;;;5028293;28;20395;-65
2021/12/28 05:13:33;;;;;;;9.48;6.55;;;;;;;;;;5036800;28;20060;-65
2021/12/28 05:15:58;;;;;;;8.65;6.15;;;;;;;;;;5034859;28;20111;-65
2021/12/28 05:18:23;;;;;;;9.80;6.40;;;;;;;;;;5030563;28;20108;-65
2021/12/28 05:20:48;;;;;;;8.55;6.28;;;;;;;;;;5036474;28;20148;-65
2021/12/28 05:23:14;;;;;;;9.10;6.63;;;;;;;;;;5031751;28;20040;-65
2021/12/28 05:25:39;;;;;;;9.30;7.22;;;;;;;;;;5032402;28;20034;-64
2021/12/28 05:28:05;;;;;;;8.77;6.63;;;;;;;;;;5037383;28;20028;-64
2021/12/28 05:30:30;;;;;;;9.38;6.68;;;;;;;;;;5033871;28;20032;-64
2021/12/28 05:32:56;;;;;;;8.82;6.25;;;;;;;;;;5031423;28;20021;-64
2021/12/28 05:35:22;;;;;;;9.80;6.32;;;;;;;;;;5029978;28;20028;-64
2021/12/28 05:37:47;;;;;;;8.15;6.40;;;;;;;;;;5031042;28;20097;-64
2021/12/28 05:40:13;;;;;;;8.50;6.40;;;;;;;;;;5027495;28;20148;-65
2021/12/28 05:42:38;;;;;;;8.57;6.57;;;;;;;;;;5030070;28;20057;-65
2021/12/28 05:45:04;;;;;;;8.90;6.35;;;;;;;;;;5042600;28;20053;-65
2021/12/28 05:47:30;;;;;;;10.18;5.97;;;;;;;;;;5030867;28;20021;-65
2021/12/28 05:49:55;;;;;;;8.20;5.85;;;;;;;;;;5029762;28;20037;-65
2021/12/28 05:52:20;;;;;;;7.88;5.25;;;;;;;;;;5031643;28;20061;-65
2021/12/28 05:54:46;;;;;;;7.10;5.40;;;;;;;;;;5013723;28;20371;-65
2021/12/28 05:57:11;;;;;;;8.13;5.90;;;;;;;;;;5013947;28;20049;-65
2021/12/28 05:59:36;;;;;;;8.40;6.20;;;;;;;;;;5030466;28;20475;-65
2021/12/28 06:02:02;;;;;;;8.73;5.60;;;;;;;;;;5013142;28;20026;-65
2021/12/28 06:04:27;;;;;;;9.77;6.47;;;;;;;;;;5013244;28;20490;-65
2021/12/28 06:06:52;;;;;;;8.27;6.27;;;;;;;;;;5030949;28;20382;-65
2021/12/28 06:09:17;;;;;;;7.83;5.67;;;;;;;;;;5028000;28;20450;-65
2021/12/28 06:11:43;;;;;;;8.30;6.03;;;;;;;;;;4994948;28;20033;-65
2021/12/28 06:14:08;;;;;;;7.63;5.00;;;;;;;;;;5033804;28;20026;-65
2021/12/28 06:16:34;;;;;;;6.83;4.90;;;;;;;;;;5012730;28;20316;-65
2021/12/28 06:18:59;;;;;;;6.50;4.70;;;;;;;;;;5031202;28;20481;-65
2021/12/28 06:21:26;;;;;;;8.43;5.00;;;;;;;;;;5030524;28;20025;-65
2021/12/28 06:23:51;;;;;;;6.37;4.70;;;;;;;;;;5031115;28;20028;-65
2021/12/28 06:26:16;;;;;;;6.13;4.60;;;;;;;;;;5031266;28;20017;-65
2021/12/28 06:28:41;;;;;;;5.47;4.50;;;;;;;;;;5031237;28;20116;-65
2021/12/28 06:31:06;;;;;;;7.33;4.40;;;;;;;;;;4993617;28;20040;-65
2021/12/28 06:33:32;;;;;;;7.03;4.77;;;;;;;;;;5027722;28;20022;-65
2021/12/28 06:35:57;;;;;;;5.43;4.00;;;;;;;;;;5030099;28;20030;-65
2021/12/28 06:38:22;;;;;;;5.13;4.10;;;;;;;;;;5031111;28;20440;-65
2021/12/28 06:40:48;;;;;;;6.30;4.27;;;;;;;;;;5023416;28;20508;-65
2021/12/28 06:43:13;;;;;;;6.27;4.03;;;;;;;;;;5011866;28;20033;-64
2021/12/28 06:45:38;;;;;;;3.77;3.17;;;;;;;;;;5018878;28;20032;-64
2021/12/28 06:48:04;;;;;;;6.17;3.93;;;;;;;;;;5013058;28;20040;-64
2021/12/28 06:50:29;;;;;;;3.90;2.93;;;;;;;;;;5042435;28;20049;-64
2021/12/28 06:52:54;;;;;;;5.87;3.53;;;;;;;;;;5031156;28;20501;-64
2021/12/28 06:55:20;;;;;;;5.20;3.47;;;;;;;;;;5030044;28;20351;-64
2021/12/28 06:57:45;;;;;;;6.63;4.17;;;;;;;;;;5030917;28;20417;-64
2021/12/28 07:00:12;;;;;;;5.90;3.90;;;;;;;;;;5030922;28;20455;-64
2021/12/28 07:02:37;;;;;;;6.30;4.73;;;;;;;;;;5029696;28;20075;-64
2021/12/28 07:05:03;;;;;;;5.03;3.93;;;;;;;;;;5028477;28;20021;-63
2021/12/28 07:07:28;;;;;;;4.80;3.60;;;;;;;;;;5031067;28;20450;-64
2021/12/28 07:09:54;;;;;;;6.03;4.07;;;;;;;;;;5010725;28;20033;-64
2021/12/28 07:12:19;;;;;;;6.20;3.60;;;;;;;;;;5039734;28;20032;-64
2021/12/28 07:14:44;;;;;;;5.30;3.90;;;;;;;;;;5029964;28;20041;-64
2021/12/28 07:17:09;;;;;;;5.57;3.67;;;;;;;;;;5030363;28;20080;-64
2021/12/28 07:19:34;;;;;;;5.57;4.37;;;;;;;;;;5012763;28;20474;-64
2021/12/28 07:22:00;;;;;;;5.83;3.60;;;;;;;;;;5031467;28;20029;-64
2021/12/28 07:24:25;;;;;;;7.97;4.50;;;;;;;;;;5030257;28;20025;-64
2021/12/28 07:26:50;;;;;;;6.13;4.23;;;;;;;;;;5025139;28;20451;-64
2021/12/28 07:29:16;;;;;;;4.97;3.70;;;;;;;;;;5025550;28;20030;-64
2021/12/28 07:31:41;;;;;;;5.87;4.00;;;;;;;;;;5010586;28;20057;-64
2021/12/28 07:34:06;;;;;;;4.60;3.63;;;;;;;;;;5011519;28;20390;-64
2021/12/28 07:36:32;;;;;;;7.07;4.27;;;;;;;;;;5029900;28;20025;-64
2021/12/28 07:38:57;;;;;;;7.03;4.80;;;;;;;;;;5022948;28;20109;-65
2021/12/28 07:41:23;;;;;;;5.20;3.90;;;;;;;;;;5026080;28;20133;-64
2021/12/28 07:43:48;;;;;;;6.03;4.23;;;;;;;;;;5031743;28;20033;-64
2021/12/28 07:46:14;;;;;;;6.03;4.20;;;;;;;;;;5031748;28;20070;-64
2021/12/28 07:48:39;;;;;;;6.32;4.32;;;;;;;;;;5031698;28;20167;-64
2021/12/28 07:51:05;;;;;;;5.82;3.92;;;;;;;;;;5013629;28;20108;-64
2021/12/28 07:53:30;;;;;;;6.22;4.05;;;;;;;;;;5016119;28;20382;-64
2021/12/28 07:55:57;;;;;;;6.00;4.22;;;;;;;;;;5031461;28;20486;-64
2021/12/28 07:58:22;;;;;;;5.88;4.03;;;;;;;;;;5032040;28;20077;-63
2021/12/28 08:00:48;;;;;;;5.25;3.70;;;;;;;;;;5027889;28;20108;-64
2021/12/28 08:03:13;;;;;;;6.38;4.03;;;;;;;;;;5024477;28;20056;-64
2021/12/28 08:05:38;;;;;;;4.13;3.03;;;;;;;;;;5025183;28;20025;-64
2021/12/28 08:08:03;;;;;;;4.60;3.75;;;;;;;;;;5032549;28;20095;-65
2021/12/28 08:10:29;;;;;;;5.50;4.00;;;;;;;;;;5021067;28;20044;-64
2021/12/28 08:12:56;;;;;;;6.18;4.18;;;;;;;;;;5019525;28;20018;-64
2021/12/28 08:15:22;;;;;;;6.00;3.50;;;;;;;;;;5029519;28;20043;-64
2021/12/28 08:17:47;;;;;;;6.47;3.90;;;;;;;;;;5031642;28;20561;-65
2021/12/28 08:20:14;;;;;;;4.65;3.35;;;;;;;;;;5030390;28;20534;-65
2021/12/28 08:22:39;;;;;;;5.25;3.58;;;;;;;;;;5032478;28;20013;-65
2021/12/28 08:25:05;;;;;;;4.47;3.28;;;;;;;;;;5033497;28;20036;-64
2021/12/28 08:27:31;;;;;;;4.45;3.20;;;;;;;;;;5031761;28;20490;-64
2021/12/28 08:29:56;;;;;;;5.10;3.40;;;;;;;;;;5014603;28;20022;-64
2021/12/28 08:32:21;;;;;;;4.63;3.15;;;;;;;;;;5032691;28;20021;-65
2021/12/28 08:34:46;;;;;;;4.88;3.47;;;;;;;;;;5032018;28;20056;-64
2021/12/28 08:37:12;;;;;;;5.60;3.63;;;;;;;;;;5033786;28;20029;-64
2021/12/28 08:39:38;;;;;;;4.38;3.30;;;;;;;;;;5009897;28;20061;-64
2021/12/28 08:42:03;;;;;;;6.50;3.58;;;;;;;;;;5031995;28;20050;-65
2021/12/28 08:44:28;;;;;;;5.55;3.10;;;;;;;;;;5041297;28;20490;-64
2021/12/28 08:46:54;;;;;;;5.18;3.50;;;;;;;;;;5038636;28;20474;-64
2021/12/28 08:49:19;;;;;;;3.63;2.67;;;;;;;;;;5031335;28;20053;-64
2021/12/28 08:51:44;;;;;;;4.35;3.00;;;;;;;;;;5014313;28;20068;-65
2021/12/28 08:54:10;;;;;;;4.10;3.03;;;;;;;;;;5030228;28;20029;-65
2021/12/28 08:56:35;;;;;;;3.40;2.58;;;;;;;;;;5014380;28;20034;-65
2021/12/28 08:59:00;;;;;;;3.15;2.40;;;;;;;;;;5031260;28;20017;-64
2021/12/28 09:01:25;;;;;;;3.97;2.38;;;;;;;;;;5031445;28;20029;-65
2021/12/28 09:03:52;;;;;;;6.18;2.85;;;;;;;;;;5032148;28;20040;-64
2021/12/28 09:06:17;;;;;;;5.40;3.17;;;;;;;;;;5023010;28;20613;-64
2021/12/28 09:08:43;;;;;;;5.78;2.90;;;;;;;;;;5027620;28;20116;-64
2021/12/28 09:11:08;;;;;;;4.88;2.42;;;;;;;;;;5021276;28;20417;-64
2021/12/28 09:13:33;;;;;;;5.43;2.80;;;;;;;;;;5029630;28;20505;-64
2021/12/28 09:15:58;;;;;;;3.92;2.75;;;;;;;;;;5025172;28;20030;-64
2021/12/28 09:18:24;;;;;;;5.35;2.67;;;;;;;;;;5031525;28;20037;-64
2021/12/28 09:20:50;;;;;;;5.90;3.28;;;;;;;;;;5010904;28;20037;-64
2021/12/28 09:23:16;;;;;;;5.47;3.40;;;;;;;;;;5028106;28;20097;-64
2021/12/28 09:25:41;;;;;;;7.53;3.50;;;;;;;;;;5031792;28;20044;-64
2021/12/28 09:28:07;;;;;;;4.60;3.22;;;;;;;;;;5031837;28;20116;-64
2021/12/28 09:30:33;;;;;;;5.80;3.50;;;;;;;;;;5031679;28;20072;-64
2021/12/28 09:32:58;;;;;;;6.82;3.95;;;;;;;;;;5020937;28;20061;-65
2021/12/28 09:35:23;;;;;;;6.55;4.82;;;;;;;;;;5026015;28;20091;-65
2021/12/28 09:37:49;;;;;;;8.07;4.68;;;;;;;;;;5031041;28;20446;-65
2021/12/28 09:40:14;;;;;;;6.93;4.90;;;;;;;;;;5027061;28;20056;-65
2021/12/28 09:42:39;;;;;;;7.22;5.00;;;;;;;;;;5031079;28;20056;-65
2021/12/28 09:45:06;;;;;;;8.98;5.38;;;;;;;;;;5031432;28;20027;-64
2021/12/28 09:47:31;;;;;;;9.18;5.38;;;;;;;;;;5030802;28;20057;-65
2021/12/28 09:49:57;;;;;;;7.97;5.07;;;;;;;;;;5030368;28;20053;-65
2021/12/28 09:52:22;;;;;;;7.63;5.47;;;;;;;;;;5032233;28;20493;-65
2021/12/28 09:54:47;;;;;;;8.70;5.47;;;;;;;;;;5014124;28;20363;-65
2021/12/28 09:57:13;;;;;;;8.00;5.00;;;;;;;;;;5020723;28;20052;-65
2021/12/28 09:59:38;;;;;;;6.50;4.78;;;;;;;;;;5028106;28;20029;-65
2021/12/28 10:02:09;;;;;;;6.25;4.93;;;;;;;;;;5013905;28;20021;-65
2021/12/28 10:04:35;;;;;;;7.32;4.80;;;;;;;;;;5030205;28;20110;-64
2021/12/28 10:07:19;;;;;;;7.70;5.28;;;;;;;;;;5031408;28;20060;-64
2021/12/28 10:09:45;;;;;;;8.30;5.00;;;;;;;;;;5024929;28;20017;-64
2021/12/28 10:12:10;;;;;;;7.20;4.38;;;;;;;;;;5030984;28;20033;-64
2021/12/28 10:14:36;;;;;;;9.38;5.43;;;;;;;;;;5031201;28;20470;-64
2021/12/28 10:17:04;;;;;;;5.72;4.65;;;;;;;;;;5013466;28;20052;-64
2021/12/28 10:19:33;;;;;;;7.07;4.60;;;;;;;;;;5029568;28;20025;-64
2021/12/28 10:22:17;;;;;;;6.50;4.45;;;;;;;;;;5012194;28;20391;-64
2021/12/28 10:24:42;;;;;;;8.02;4.72;;;;;;;;;;5022636;28;20024;-64
2021/12/28 10:27:08;;;;;;;5.00;3.60;;;;;;;;;;5030233;28;20029;-64
2021/12/28 10:29:33;;;;;;;7.30;4.55;;;;;;;;;;5031718;28;20122;-65
2021/12/28 10:32:17;;;;;;;9.88;5.40;;;;;;;;;;5029446;28;20044;-64
2021/12/28 10:34:46;;;;;;;8.90;5.43;;;;;;;;;;5019429;28;20397;-65
2021/12/28 10:37:19;;;;;;;5.75;3.17;;;;;;;;;;5030384;28;20429;-64
2021/12/28 10:39:46;;;;;;;4.63;2.83;;;;;;;;;;5025358;28;20021;-64
2021/12/28 10:42:31;;;;;;;4.15;2.88;;;;;;;;;;5007689;28;20528;-66
2021/12/28 10:44:57;;;;;;;5.53;2.88;;;;;;;;;;5011649;28;20541;-65
2021/12/28 10:47:22;;;;;;;3.72;2.50;;;;;;;;;;5010650;28;20025;-65
2021/12/28 10:49:47;;;;;;;4.40;2.53;;;;;;;;;;5008571;28;20018;-65
2021/12/28 10:52:38;;;;;;;4.68;2.42;;;;;;;;;;5010973;28;20033;-65
2021/12/28 10:55:22;;;;;;;7.07;3.00;;;;;;;;;;5010878;28;20097;-67
2021/12/28 10:57:48;;;;;;;4.55;2.53;;;;;;;;;;5008924;28;20069;-65
2021/12/28 11:00:25;;;;;;;6.18;2.65;;;;;;;;;;5011268;28;20026;-65
2021/12/28 11:02:52;;;;;;;5.03;2.60;;;;;;;;;;5010484;28;20042;-65
2021/12/28 11:05:33;;;;;;;3.10;2.15;;;;;;;;;;5006276;28;20081;-64
2021/12/28 11:07:59;;;;;;;5.78;2.60;;;;;;;;;;5005414;28;20036;-65
2021/12/28 11:10:28;;;;;;;3.95;1.92;;;;;;;;;;5008404;28;20030;-66
2021/12/28 11:12:54;;;;;;;3.13;1.63;;;;;;;;;;5004298;28;20479;-66
2021/12/28 11:15:21;;;;;;;3.80;2.13;;;;;;;;;;5009837;28;20029;-69
2021/12/28 11:17:46;;;;;;;3.35;1.67;;;;;;;;;;5011011;28;20093;-66
2021/12/28 11:20:12;;;;;;;2.72;1.80;;;;;;;;;;5011393;28;20109;-66
2021/12/28 11:22:37;;;;;;;3.42;1.52;;;;;;;;;;5014873;28;20049;-65
2021/12/28 11:25:15;;;;;;;2.30;1.75;;;;;;;;;;5014205;28;20084;-65
2021/12/28 11:27:41;;;;;;;2.70;2.08;;;;;;;;;;5008798;28;20076;-65
2021/12/28 11:30:13;;;;;;;3.72;2.38;;;;;;;;;;5008720;28;20026;-63
2021/12/28 11:32:38;;;;;;;2.75;1.95;;;;;;;;;;5014504;28;20069;-64
2021/12/28 11:35:04;;;;;;;3.25;1.98;;;;;;;;;;5013677;28;20018;-72
2021/12/28 11:37:30;;;;;;;3.38;2.20;;;;;;;;;;5014500;28;20037;-72
2021/12/28 11:39:59;;;;;;;4.47;2.30;;;;;;;;;;4987770;28;20026;-75
2021/12/28 11:42:24;;;;;;;3.50;2.55;;;;;;;;;;5004702;28;20022;-73
2021/12/28 11:44:50;;;;;;;3.88;2.50;;;;;;;;;;5015848;28;20095;-73
2021/12/28 11:47:16;;;;;;;4.65;2.88;;;;;;;;;;5032620;28;20028;-71
2021/12/28 11:49:42;;;;;;;3.80;2.85;;;;;;;;;;5015738;28;20036;-73
2021/12/28 11:52:08;;;;;;;6.20;3.67;;;;;;;;;;5033910;28;20017;-72
2021/12/28 11:54:35;;;;;;;3.97;2.95;;;;;;;;;;5035317;28;20404;-73
2021/12/28 11:57:06;;;;;;;5.25;2.88;;;;;;;;;;5044591;28;20021;-72
2021/12/28 11:59:32;;;;;;;5.03;2.97;;;;;;;;;;5033941;28;20025;-72
2021/12/28 12:02:04;;;;;;;4.28;3.08;;;;;;;;;;5012674;28;20030;-71
2021/12/28 12:04:30;;;;;;;4.63;3.38;;;;;;;;;;5014955;28;20513;-72
2021/12/28 12:07:06;;;;;;;4.90;3.22;;;;;;;;;;5013667;28;20033;-72
2021/12/28 12:09:54;;;;;;;5.45;3.40;;;;;;;;;;5028902;28;20029;-72
2021/12/28 12:12:20;;;;;;;4.13;2.75;;;;;;;;;;5011793;28;20397;-69
2021/12/28 12:14:52;;;;;;;3.92;3.03;;;;;;;;;;5013091;28;20021;-67
2021/12/28 12:17:26;;;;;;;4.20;2.90;;;;;;;;;;5033600;28;20470;-64
2021/12/28 12:19:52;;;;;;;4.73;3.00;;;;;;;;;;5032675;28;20051;-63
2021/12/28 12:22:30;;;;;;;4.13;2.63;;;;;;;;;;5032935;28;20025;-69
2021/12/28 12:24:55;;;;;;;3.75;2.40;;;;;;;;;;5013942;28;20072;-70
2021/12/28 12:27:39;;;;;;;4.22;2.70;;;;;;;;;;5014722;28;20029;-71
2021/12/28 12:30:16;;;;;;;3.42;2.58;;;;;;;;;;5033169;28;20440;-67
2021/12/28 12:33:07;;;;;;;3.05;2.28;;;;;;;;;;5025909;28;20623;-69
2021/12/28 12:35:35;;;;;;;3.40;2.28;;;;;;;;;;5014228;28;20426;-68
2021/12/28 12:38:26;;;;;;;3.67;2.13;;;;;;;;;;5033325;28;20023;-64
2021/12/28 12:40:51;;;;;;;3.38;1.67;;;;;;;;;;5025775;28;20050;-68
2021/12/28 12:43:16;;;;;;;2.00;1.73;;;;;;;;;;5017797;28;20037;-70
2021/12/28 12:45:50;;;;;;;2.95;1.90;;;;;;;;;;5032598;28;20028;-66
2021/12/28 12:48:40;;;;;;;2.03;1.70;;;;;;;;;;5014237;28;20121;-64
2021/12/28 12:51:23;;;;;;;2.65;1.83;;;;;;;;;;4983094;28;20296;-65
2021/12/28 12:53:49;;;;;;;2.00;1.77;;;;;;;;;;5031163;28;20080;-65
2021/12/28 12:56:15;;;;;;;1.98;1.27;;;;;;;;;;5031093;28;20035;-65
2021/12/28 12:58:41;;;;;;;1.85;1.10;;;;;;;;;;5025439;28;20025;-65
2021/12/28 13:01:17;;;;;;;2.80;1.33;;;;;;;;;;5011876;28;20037;-65
2021/12/28 13:03:42;;;;;;;2.08;1.15;;;;;;;;;;5025752;28;20656;-65
2021/12/28 13:06:07;;;;;;;2.03;1.20;;;;;;;;;;5027309;28;20120;-65
2021/12/28 13:08:33;;;;;;;2.60;1.45;;;;;;;;;;5028547;28;20033;-65
2021/12/28 13:10:58;;;;;;;1.80;1.08;;;;;;;;;;5027974;28;20034;-65
2021/12/28 13:13:23;;;;;;;2.50;1.30;;;;;;;;;;5028208;28;20189;-63
2021/12/28 13:15:48;;;;;;;2.28;1.45;;;;;;;;;;5020992;28;20061;-63
2021/12/28 13:18:13;;;;;;;2.15;1.50;;;;;;;;;;5024102;28;20499;-64
2021/12/28 13:20:39;;;;;;;2.03;1.73;;;;;;;;;;5025444;28;20497;-64
2021/12/28 13:23:05;;;;;;;1.20;1.10;;;;;;;;;;5012298;28;20115;-64
2021/12/28 13:25:44;;;;;;;2.13;1.30;;;;;;;;;;5012884;28;20021;-65
2021/12/28 13:28:10;;;;;;;3.17;1.08;;;;;;;;;;5020189;28;20078;-64
2021/12/28 13:30:37;;;;;;;1.50;1.10;;;;;;;;;;5030055;28;21383;-64
2021/12/28 13:33:03;;;;;;;1.55;0.90;;;;;;;;;;5030008;28;20171;-64
2021/12/28 13:35:31;;;;;;;1.83;0.90;;;;;;;;;;5029712;28;20362;-65
2021/12/28 13:37:58;;;;;;;1.20;0.88;;;;;;;;;;5031137;28;20136;-65
2021/12/28 13:40:29;;;;;;;1.92;1.10;;;;;;;;;;5010021;28;20067;-65
2021/12/28 13:42:57;;;;;;;1.58;0.75;;;;;;;;;;5022330;28;20079;-65
2021/12/28 13:45:27;;;;;;;0.45;0.40;;;;;;;;;;5020233;28;20018;-65
2021/12/28 13:47:52;;;;;;;0.73;0.50;;;;;;;;;;5028234;28;20022;-66
2021/12/28 13:50:17;;;;;;;0.70;0.50;;;;;;;;;;5020855;28;20034;-65
2021/12/28 13:52:44;;;;;;;1.15;0.57;;;;;;;;;;5030768;28;20063;-66
2021/12/28 13:55:10;;;;;;;1.45;0.88;;;;;;;;;;5028876;28;20506;-65
2021/12/28 13:57:36;;;;;;;1.63;1.00;;;;;;;;;;5031308;28;20028;-65
2021/12/28 14:00:03;;;;;;;1.73;1.10;;;;;;;;;;5017542;28;20389;-65
2021/12/28 14:02:28;;;;;;;1.50;0.95;;;;;;;;;;5036930;28;20466;-65
2021/12/28 14:04:53;;;;;;;2.65;0.80;;;;;;;;;;5030015;28;20040;-65
2021/12/28 14:07:18;;;;;;;1.85;0.60;;;;;;;;;;5029496;28;20075;-66
2021/12/28 14:09:44;;;;;;;0.70;0.30;;;;;;;;;;5026017;28;20055;-65
2021/12/28 14:12:09;;;;;;;1.10;0.50;;;;;;;;;;5027315;28;20126;-64
2021/12/28 14:14:35;;;;;;;1.30;0.68;;;;;;;;;;5031286;28;20049;-64
2021/12/28 14:17:09;;;;;;;0.82;0.57;;;;;;;;;;5015594;28;20029;-64
2021/12/28 14:19:36;;;;;;;0.98;0.40;;;;;;;;;;5030356;28;20512;-66
2021/12/28 14:22:01;;;;;;;0.85;0.50;;;;;;;;;;5027824;28;20056;-65
2021/12/28 14:24:28;;;;;;;0.85;0.60;;;;;;;;;;5023583;28;20045;-65
2021/12/28 14:26:53;;;;;;;2.63;1.38;;;;;;;;;;5027947;28;20116;-65
2021/12/28 14:29:19;;;;;;;1.00;0.60;;;;;;;;;;5030545;28;20485;-65
2021/12/28 14:31:48;;;;;;;1.13;0.50;;;;;;;;;;5029469;28;20071;-65
2021/12/28 14:34:14;;;;;;;1.02;0.77;;;;;;;;;;5028554;28;20025;-65
2021/12/28 14:36:42;;;;;;;1.30;0.90;;;;;;;;;;5030961;28;20021;-65
2021/12/28 14:39:12;;;;;;;0.90;0.60;;;;;;;;;;5028088;28;20014;-65